KAJO

Corona Municipal Airport

Corona, California, USA
METAR KAJO 112356Z AUTO 26004KT 10SM CLR 19/08 A2999 RMK AO2 SLP168 6//// T01940083 10217 20139 55003 $
Observed Flight Rules
Dec-11 @ 23:56 UTC (46 minutes ago) Visual Flight Rules
Wind Visibility Clouds
260° at 4 knots 10 miles
  • Clear skies
Temperatures Readings
Current 19°C / 66°F
Dewpoint 8°C / 46°F
Humidity 49%
Altimeter 29.99" Hg
Pressure 1016.8 hPa
Elevation 163
METAR KAJO 112356Z AUTO 26004KT 10SM CLR 19/08 A2999 RMK AO2 SLP168 6//// T01940083 10217 20139 55003 $
Observed Flight Rules
Dec-11 @ 23:56 UTC
(46 minutes ago)
VFR
Wind Visibility
260° at 4 knots 10 miles
Clouds
  • Clear skies
Temperature Dewpoint
19°C / 66°F 8°C / 46°F
Humidity Altimeter Pressure
49% 29.99" Hg 1016.8 hPa